sensor_id;sensor_type;location;lat;lon;timestamp;P1;durP1;ratioP1;P2;durP2;ratioP2
4011;SDS011;2020;48.682;9.024;2023-04-24T00:01:57;0.60;;;0.60;;
4011;SDS011;2020;48.682;9.024;2023-04-24T00:04:23;0.50;;;0.50;;
4011;SDS011;2020;48.682;9.024;2023-04-24T00:06:50;0.40;;;0.40;;
4011;SDS011;2020;48.682;9.024;2023-04-24T00:09:18;0.60;;;0.60;;
4011;SDS011;2020;48.682;9.024;2023-04-24T00:11:44;0.50;;;0.50;;
4011;SDS011;2020;48.682;9.024;2023-04-24T00:14:09;0.70;;;0.70;;
4011;SDS011;2020;48.682;9.024;2023-04-24T00:16:35;0.70;;;0.70;;
4011;SDS011;2020;48.682;9.024;2023-04-24T00:19:00;0.60;;;0.50;;
4011;SDS011;2020;48.682;9.024;2023-04-24T00:21:25;0.60;;;0.60;;
4011;SDS011;2020;48.682;9.024;2023-04-24T00:23:51;2.17;;;0.60;;
4011;SDS011;2020;48.682;9.024;2023-04-24T00:26:17;0.60;;;0.60;;
4011;SDS011;2020;48.682;9.024;2023-04-24T00:28:42;0.50;;;0.50;;
4011;SDS011;2020;48.682;9.024;2023-04-24T00:31:08;0.80;;;0.70;;
4011;SDS011;2020;48.682;9.024;2023-04-24T00:33:33;0.73;;;0.67;;
4011;SDS011;2020;48.682;9.024;2023-04-24T00:35:58;2.33;;;0.50;;
4011;SDS011;2020;48.682;9.024;2023-04-24T00:38:24;0.40;;;0.40;;
4011;SDS011;2020;48.682;9.024;2023-04-24T00:40:49;0.60;;;0.60;;
4011;SDS011;2020;48.682;9.024;2023-04-24T00:43:15;0.50;;;0.50;;
4011;SDS011;2020;48.682;9.024;2023-04-24T00:45:41;1.17;;;0.80;;
4011;SDS011;2020;48.682;9.024;2023-04-24T00:48:06;0.53;;;0.53;;
4011;SDS011;2020;48.682;9.024;2023-04-24T00:50:32;0.50;;;0.50;;
4011;SDS011;2020;48.682;9.024;2023-04-24T00:52:58;0.70;;;0.50;;
4011;SDS011;2020;48.682;9.024;2023-04-24T00:55:24;0.67;;;0.50;;
4011;SDS011;2020;48.682;9.024;2023-04-24T00:57:49;0.50;;;0.50;;
4011;SDS011;2020;48.682;9.024;2023-04-24T01:00:15;0.50;;;0.50;;
4011;SDS011;2020;48.682;9.024;2023-04-24T01:02:41;0.40;;;0.40;;
4011;SDS011;2020;48.682;9.024;2023-04-24T01:05:12;0.50;;;0.50;;
4011;SDS011;2020;48.682;9.024;2023-04-24T01:07:38;0.53;;;0.53;;
4011;SDS011;2020;48.682;9.024;2023-04-24T01:10:06;0.93;;;0.67;;
4011;SDS011;2020;48.682;9.024;2023-04-24T01:12:32;2.37;;;0.70;;
4011;SDS011;2020;48.682;9.024;2023-04-24T01:14:58;0.50;;;0.50;;
4011;SDS011;2020;48.682;9.024;2023-04-24T01:17:23;0.47;;;0.47;;
4011;SDS011;2020;48.682;9.024;2023-04-24T01:19:49;0.70;;;0.70;;
4011;SDS011;2020;48.682;9.024;2023-04-24T01:22:14;1.07;;;0.57;;
4011;SDS011;2020;48.682;9.024;2023-04-24T01:24:40;0.40;;;0.40;;
4011;SDS011;2020;48.682;9.024;2023-04-24T01:27:06;1.00;;;1.00;;
4011;SDS011;2020;48.682;9.024;2023-04-24T01:29:32;0.60;;;0.60;;
4011;SDS011;2020;48.682;9.024;2023-04-24T01:31:59;0.80;;;0.80;;
4011;SDS011;2020;48.682;9.024;2023-04-24T01:34:25;0.57;;;0.57;;
4011;SDS011;2020;48.682;9.024;2023-04-24T01:36:50;1.03;;;0.50;;
4011;SDS011;2020;48.682;9.024;2023-04-24T01:39:16;0.60;;;0.60;;
4011;SDS011;2020;48.682;9.024;2023-04-24T01:41:41;0.50;;;0.50;;
4011;SDS011;2020;48.682;9.024;2023-04-24T01:44:07;0.50;;;0.50;;
4011;SDS011;2020;48.682;9.024;2023-04-24T01:46:32;1.70;;;0.50;;
4011;SDS011;2020;48.682;9.024;2023-04-24T01:48:59;1.07;;;0.60;;
4011;SDS011;2020;48.682;9.024;2023-04-24T01:51:25;0.50;;;0.50;;
4011;SDS011;2020;48.682;9.024;2023-04-24T01:53:51;2.20;;;0.60;;
4011;SDS011;2020;48.682;9.024;2023-04-24T01:56:19;0.50;;;0.50;;
4011;SDS011;2020;48.682;9.024;2023-04-24T01:58:45;0.50;;;0.50;;
4011;SDS011;2020;48.682;9.024;2023-04-24T02:01:14;1.17;;;0.60;;
4011;SDS011;2020;48.682;9.024;2023-04-24T02:03:43;1.90;;;0.70;;
4011;SDS011;2020;48.682;9.024;2023-04-24T02:06:08;0.50;;;0.50;;
4011;SDS011;2020;48.682;9.024;2023-04-24T02:08:33;2.40;;;0.80;;
4011;SDS011;2020;48.682;9.024;2023-04-24T02:10:58;0.53;;;0.53;;
4011;SDS011;2020;48.682;9.024;2023-04-24T02:13:24;0.60;;;0.60;;
4011;SDS011;2020;48.682;9.024;2023-04-24T02:15:49;0.50;;;0.50;;
4011;SDS011;2020;48.682;9.024;2023-04-24T02:18:14;0.43;;;0.43;;
4011;SDS011;2020;48.682;9.024;2023-04-24T02:20:40;1.23;;;0.53;;
4011;SDS011;2020;48.682;9.024;2023-04-24T02:23:05;0.50;;;0.50;;
4011;SDS011;2020;48.682;9.024;2023-04-24T02:25:31;0.50;;;0.50;;
4011;SDS011;2020;48.682;9.024;2023-04-24T02:27:56;0.80;;;0.60;;
4011;SDS011;2020;48.682;9.024;2023-04-24T02:30:21;0.70;;;0.70;;
4011;SDS011;2020;48.682;9.024;2023-04-24T02:32:47;0.70;;;0.70;;
4011;SDS011;2020;48.682;9.024;2023-04-24T02:35:12;0.47;;;0.47;;
4011;SDS011;2020;48.682;9.024;2023-04-24T02:37:37;0.80;;;0.80;;
4011;SDS011;2020;48.682;9.024;2023-04-24T02:40:03;1.40;;;1.40;;
4011;SDS011;2020;48.682;9.024;2023-04-24T02:42:28;1.20;;;0.90;;
4011;SDS011;2020;48.682;9.024;2023-04-24T02:44:54;2.00;;;1.17;;
4011;SDS011;2020;48.682;9.024;2023-04-24T02:47:19;0.60;;;0.60;;
4011;SDS011;2020;48.682;9.024;2023-04-24T02:49:44;0.70;;;0.70;;
4011;SDS011;2020;48.682;9.024;2023-04-24T02:52:10;0.60;;;0.60;;
4011;SDS011;2020;48.682;9.024;2023-04-24T02:54:35;1.07;;;0.77;;
4011;SDS011;2020;48.682;9.024;2023-04-24T02:57:00;0.50;;;0.50;;
4011;SDS011;2020;48.682;9.024;2023-04-24T02:59:26;0.40;;;0.40;;
4011;SDS011;2020;48.682;9.024;2023-04-24T03:01:53;0.70;;;0.50;;
4011;SDS011;2020;48.682;9.024;2023-04-24T03:04:19;0.60;;;0.60;;
4011;SDS011;2020;48.682;9.024;2023-04-24T03:06:45;0.40;;;0.40;;
4011;SDS011;2020;48.682;9.024;2023-04-24T03:09:10;0.57;;;0.57;;
4011;SDS011;2020;48.682;9.024;2023-04-24T03:11:36;1.50;;;0.50;;
4011;SDS011;2020;48.682;9.024;2023-04-24T03:14:01;0.50;;;0.50;;
4011;SDS011;2020;48.682;9.024;2023-04-24T03:16:27;1.03;;;0.70;;
4011;SDS011;2020;48.682;9.024;2023-04-24T03:18:52;0.50;;;0.50;;
4011;SDS011;2020;48.682;9.024;2023-04-24T03:21:17;0.50;;;0.50;;
4011;SDS011;2020;48.682;9.024;2023-04-24T03:23:43;0.50;;;0.50;;
4011;SDS011;2020;48.682;9.024;2023-04-24T03:26:08;0.50;;;0.50;;
4011;SDS011;2020;48.682;9.024;2023-04-24T03:28:33;1.60;;;0.57;;
4011;SDS011;2020;48.682;9.024;2023-04-24T03:30:59;1.17;;;0.70;;
4011;SDS011;2020;48.682;9.024;2023-04-24T03:33:24;0.57;;;0.57;;
4011;SDS011;2020;48.682;9.024;2023-04-24T03:35:50;0.50;;;0.50;;
4011;SDS011;2020;48.682;9.024;2023-04-24T03:38:15;3.37;;;0.63;;
4011;SDS011;2020;48.682;9.024;2023-04-24T03:40:40;1.17;;;0.50;;
4011;SDS011;2020;48.682;9.024;2023-04-24T03:43:05;0.50;;;0.50;;
4011;SDS011;2020;48.682;9.024;2023-04-24T03:45:31;0.50;;;0.50;;
4011;SDS011;2020;48.682;9.024;2023-04-24T03:47:56;0.50;;;0.47;;
4011;SDS011;2020;48.682;9.024;2023-04-24T03:50:21;0.50;;;0.50;;
4011;SDS011;2020;48.682;9.024;2023-04-24T03:52:47;0.47;;;0.47;;
4011;SDS011;2020;48.682;9.024;2023-04-24T03:55:12;0.73;;;0.73;;
4011;SDS011;2020;48.682;9.024;2023-04-24T03:57:39;0.50;;;0.50;;
4011;SDS011;2020;48.682;9.024;2023-04-24T04:00:07;0.80;;;0.70;;
4011;SDS011;2020;48.682;9.024;2023-04-24T04:02:33;0.60;;;0.60;;
4011;SDS011;2020;48.682;9.024;2023-04-24T04:04:59;0.60;;;0.60;;
4011;SDS011;2020;48.682;9.024;2023-04-24T04:07:24;0.50;;;0.50;;
4011;SDS011;2020;48.682;9.024;2023-04-24T04:09:50;0.50;;;0.50;;
4011;SDS011;2020;48.682;9.024;2023-04-24T04:12:15;0.53;;;0.53;;
4011;SDS011;2020;48.682;9.024;2023-04-24T04:14:41;0.50;;;0.50;;
4011;SDS011;2020;48.682;9.024;2023-04-24T04:17:06;2.60;;;0.70;;
4011;SDS011;2020;48.682;9.024;2023-04-24T04:19:32;0.57;;;0.57;;
4011;SDS011;2020;48.682;9.024;2023-04-24T04:21:57;0.53;;;0.53;;
4011;SDS011;2020;48.682;9.024;2023-04-24T04:24:22;1.23;;;0.50;;
4011;SDS011;2020;48.682;9.024;2023-04-24T04:26:49;0.60;;;0.60;;
4011;SDS011;2020;48.682;9.024;2023-04-24T04:29:16;0.60;;;0.60;;
4011;SDS011;2020;48.682;9.024;2023-04-24T04:31:42;0.80;;;0.80;;
4011;SDS011;2020;48.682;9.024;2023-04-24T04:34:08;1.10;;;0.63;;
4011;SDS011;2020;48.682;9.024;2023-04-24T04:36:34;5.20;;;0.67;;
4011;SDS011;2020;48.682;9.024;2023-04-24T04:39:01;0.60;;;0.60;;
4011;SDS011;2020;48.682;9.024;2023-04-24T04:41:27;0.63;;;0.63;;
4011;SDS011;2020;48.682;9.024;2023-04-24T04:43:53;1.87;;;0.70;;
4011;SDS011;2020;48.682;9.024;2023-04-24T04:46:18;0.80;;;0.80;;
4011;SDS011;2020;48.682;9.024;2023-04-24T04:48:43;3.00;;;0.80;;
4011;SDS011;2020;48.682;9.024;2023-04-24T04:51:09;0.60;;;0.60;;
4011;SDS011;2020;48.682;9.024;2023-04-24T04:53:34;0.90;;;0.90;;
4011;SDS011;2020;48.682;9.024;2023-04-24T04:56:00;5.40;;;1.00;;
4011;SDS011;2020;48.682;9.024;2023-04-24T04:58:25;1.10;;;1.10;;
4011;SDS011;2020;48.682;9.024;2023-04-24T05:00:51;0.80;;;0.80;;
4011;SDS011;2020;48.682;9.024;2023-04-24T05:03:17;0.77;;;0.77;;
4011;SDS011;2020;48.682;9.024;2023-04-24T05:05:42;0.60;;;0.60;;
4011;SDS011;2020;48.682;9.024;2023-04-24T05:08:07;1.07;;;1.07;;
4011;SDS011;2020;48.682;9.024;2023-04-24T05:10:33;0.80;;;0.80;;
4011;SDS011;2020;48.682;9.024;2023-04-24T05:12:58;1.10;;;1.10;;
4011;SDS011;2020;48.682;9.024;2023-04-24T05:15:24;0.80;;;0.80;;
4011;SDS011;2020;48.682;9.024;2023-04-24T05:17:49;0.60;;;0.60;;
4011;SDS011;2020;48.682;9.024;2023-04-24T05:20:15;0.70;;;0.70;;
4011;SDS011;2020;48.682;9.024;2023-04-24T05:22:40;0.80;;;0.80;;
4011;SDS011;2020;48.682;9.024;2023-04-24T05:25:05;1.40;;;0.90;;
4011;SDS011;2020;48.682;9.024;2023-04-24T05:27:31;1.10;;;1.00;;
4011;SDS011;2020;48.682;9.024;2023-04-24T05:29:56;0.77;;;0.77;;
4011;SDS011;2020;48.682;9.024;2023-04-24T05:32:21;3.23;;;0.80;;
4011;SDS011;2020;48.682;9.024;2023-04-24T05:34:46;1.53;;;1.43;;
4011;SDS011;2020;48.682;9.024;2023-04-24T05:37:12;1.33;;;1.33;;
4011;SDS011;2020;48.682;9.024;2023-04-24T05:39:37;0.97;;;0.97;;
4011;SDS011;2020;48.682;9.024;2023-04-24T05:42:03;1.00;;;1.00;;
4011;SDS011;2020;48.682;9.024;2023-04-24T05:44:29;0.83;;;0.83;;
4011;SDS011;2020;48.682;9.024;2023-04-24T05:46:55;0.90;;;0.80;;
4011;SDS011;2020;48.682;9.024;2023-04-24T05:49:21;0.90;;;0.90;;
4011;SDS011;2020;48.682;9.024;2023-04-24T05:51:46;1.00;;;1.00;;
4011;SDS011;2020;48.682;9.024;2023-04-24T05:54:11;1.20;;;1.20;;
4011;SDS011;2020;48.682;9.024;2023-04-24T05:56:37;0.90;;;0.90;;
4011;SDS011;2020;48.682;9.024;2023-04-24T05:59:02;0.97;;;0.97;;
4011;SDS011;2020;48.682;9.024;2023-04-24T06:01:28;0.80;;;0.80;;
4011;SDS011;2020;48.682;9.024;2023-04-24T06:03:54;0.80;;;0.80;;
4011;SDS011;2020;48.682;9.024;2023-04-24T06:06:20;1.00;;;1.00;;
4011;SDS011;2020;48.682;9.024;2023-04-24T06:08:45;1.00;;;1.00;;
4011;SDS011;2020;48.682;9.024;2023-04-24T06:11:11;0.93;;;0.93;;
4011;SDS011;2020;48.682;9.024;2023-04-24T06:13:36;1.13;;;1.13;;
4011;SDS011;2020;48.682;9.024;2023-04-24T06:16:01;2.60;;;1.67;;
4011;SDS011;2020;48.682;9.024;2023-04-24T06:18:26;1.27;;;1.27;;
4011;SDS011;2020;48.682;9.024;2023-04-24T06:20:52;0.97;;;0.97;;
4011;SDS011;2020;48.682;9.024;2023-04-24T06:23:17;1.33;;;1.33;;
4011;SDS011;2020;48.682;9.024;2023-04-24T06:25:42;0.93;;;0.93;;
4011;SDS011;2020;48.682;9.024;2023-04-24T06:28:07;0.90;;;0.90;;
4011;SDS011;2020;48.682;9.024;2023-04-24T06:30:33;0.90;;;0.90;;
4011;SDS011;2020;48.682;9.024;2023-04-24T06:32:58;1.03;;;1.03;;
4011;SDS011;2020;48.682;9.024;2023-04-24T06:35:23;1.20;;;1.20;;
4011;SDS011;2020;48.682;9.024;2023-04-24T06:37:48;0.80;;;0.80;;
4011;SDS011;2020;48.682;9.024;2023-04-24T06:40:14;1.07;;;1.07;;
4011;SDS011;2020;48.682;9.024;2023-04-24T06:42:39;1.23;;;1.23;;
4011;SDS011;2020;48.682;9.024;2023-04-24T06:45:05;1.40;;;1.40;;
4011;SDS011;2020;48.682;9.024;2023-04-24T06:47:30;0.80;;;0.80;;
4011;SDS011;2020;48.682;9.024;2023-04-24T06:49:56;0.80;;;0.80;;
4011;SDS011;2020;48.682;9.024;2023-04-24T06:52:22;0.80;;;0.80;;
4011;SDS011;2020;48.682;9.024;2023-04-24T06:54:47;1.13;;;1.13;;
4011;SDS011;2020;48.682;9.024;2023-04-24T06:57:12;0.73;;;0.73;;
4011;SDS011;2020;48.682;9.024;2023-04-24T06:59:38;0.97;;;0.97;;
4011;SDS011;2020;48.682;9.024;2023-04-24T07:02:03;1.30;;;1.13;;
4011;SDS011;2020;48.682;9.024;2023-04-24T07:04:29;1.37;;;1.37;;
4011;SDS011;2020;48.682;9.024;2023-04-24T07:06:54;1.17;;;1.00;;
4011;SDS011;2020;48.682;9.024;2023-04-24T07:09:21;0.70;;;0.70;;
4011;SDS011;2020;48.682;9.024;2023-04-24T07:11:47;0.97;;;0.93;;
4011;SDS011;2020;48.682;9.024;2023-04-24T07:14:13;0.70;;;0.70;;
4011;SDS011;2020;48.682;9.024;2023-04-24T07:16:38;0.80;;;0.80;;
4011;SDS011;2020;48.682;9.024;2023-04-24T07:19:04;0.60;;;0.60;;
4011;SDS011;2020;48.682;9.024;2023-04-24T07:21:29;0.60;;;0.60;;
4011;SDS011;2020;48.682;9.024;2023-04-24T07:23:56;1.20;;;1.20;;
4011;SDS011;2020;48.682;9.024;2023-04-24T07:26:21;0.60;;;0.60;;
4011;SDS011;2020;48.682;9.024;2023-04-24T07:28:46;0.70;;;0.70;;
4011;SDS011;2020;48.682;9.024;2023-04-24T07:31:12;0.83;;;0.83;;
4011;SDS011;2020;48.682;9.024;2023-04-24T07:33:37;0.83;;;0.70;;
4011;SDS011;2020;48.682;9.024;2023-04-24T07:36:03;0.60;;;0.60;;
4011;SDS011;2020;48.682;9.024;2023-04-24T07:38:31;0.83;;;0.83;;
4011;SDS011;2020;48.682;9.024;2023-04-24T07:40:57;0.80;;;0.80;;
4011;SDS011;2020;48.682;9.024;2023-04-24T07:43:22;0.97;;;0.97;;
4011;SDS011;2020;48.682;9.024;2023-04-24T07:45:48;2.97;;;1.03;;
4011;SDS011;2020;48.682;9.024;2023-04-24T07:48:14;0.70;;;0.70;;
4011;SDS011;2020;48.682;9.024;2023-04-24T07:50:41;0.93;;;0.90;;
4011;SDS011;2020;48.682;9.024;2023-04-24T07:53:07;0.80;;;0.70;;
4011;SDS011;2020;48.682;9.024;2023-04-24T07:55:32;0.83;;;0.83;;
4011;SDS011;2020;48.682;9.024;2023-04-24T07:57:57;1.17;;;1.17;;
4011;SDS011;2020;48.682;9.024;2023-04-24T08:00:23;1.00;;;0.80;;
4011;SDS011;2020;48.682;9.024;2023-04-24T08:02:48;0.90;;;0.90;;
4011;SDS011;2020;48.682;9.024;2023-04-24T08:05:13;0.60;;;0.60;;
4011;SDS011;2020;48.682;9.024;2023-04-24T08:07:38;0.70;;;0.70;;
4011;SDS011;2020;48.682;9.024;2023-04-24T08:10:04;1.27;;;0.73;;
4011;SDS011;2020;48.682;9.024;2023-04-24T08:12:30;0.77;;;0.77;;
4011;SDS011;2020;48.682;9.024;2023-04-24T08:14:55;1.20;;;1.20;;
4011;SDS011;2020;48.682;9.024;2023-04-24T08:17:21;0.93;;;0.93;;
4011;SDS011;2020;48.682;9.024;2023-04-24T08:19:46;0.93;;;0.93;;
4011;SDS011;2020;48.682;9.024;2023-04-24T08:22:16;1.00;;;1.00;;
4011;SDS011;2020;48.682;9.024;2023-04-24T08:24:41;1.07;;;1.07;;
4011;SDS011;2020;48.682;9.024;2023-04-24T08:27:06;0.97;;;0.97;;
4011;SDS011;2020;48.682;9.024;2023-04-24T08:29:32;0.90;;;0.90;;
4011;SDS011;2020;48.682;9.024;2023-04-24T08:31:58;1.10;;;1.10;;
4011;SDS011;2020;48.682;9.024;2023-04-24T08:34:23;0.80;;;0.80;;
4011;SDS011;2020;48.682;9.024;2023-04-24T08:36:48;0.80;;;0.80;;
4011;SDS011;2020;48.682;9.024;2023-04-24T08:39:14;1.00;;;1.00;;
4011;SDS011;2020;48.682;9.024;2023-04-24T08:41:41;0.97;;;0.97;;
4011;SDS011;2020;48.682;9.024;2023-04-24T08:44:07;1.07;;;0.90;;
4011;SDS011;2020;48.682;9.024;2023-04-24T08:46:34;1.00;;;0.87;;
4011;SDS011;2020;48.682;9.024;2023-04-24T08:49:00;0.77;;;0.77;;
4011;SDS011;2020;48.682;9.024;2023-04-24T08:51:27;1.67;;;0.90;;
4011;SDS011;2020;48.682;9.024;2023-04-24T08:53:55;1.30;;;1.10;;
4011;SDS011;2020;48.682;9.024;2023-04-24T08:56:21;2.50;;;0.90;;
4011;SDS011;2020;48.682;9.024;2023-04-24T08:58:48;0.87;;;0.87;;
4011;SDS011;2020;48.682;9.024;2023-04-24T09:01:21;0.70;;;0.70;;
4011;SDS011;2020;48.682;9.024;2023-04-24T09:03:50;1.43;;;1.33;;
4011;SDS011;2020;48.682;9.024;2023-04-24T09:06:17;1.10;;;1.10;;
4011;SDS011;2020;48.682;9.024;2023-04-24T09:08:42;1.23;;;1.23;;
4011;SDS011;2020;48.682;9.024;2023-04-24T09:11:10;0.90;;;0.90;;
4011;SDS011;2020;48.682;9.024;2023-04-24T09:13:36;0.80;;;0.80;;
4011;SDS011;2020;48.682;9.024;2023-04-24T09:16:02;1.30;;;1.20;;
4011;SDS011;2020;48.682;9.024;2023-04-24T09:18:27;0.80;;;0.80;;
4011;SDS011;2020;48.682;9.024;2023-04-24T09:21:00;1.00;;;0.60;;
4011;SDS011;2020;48.682;9.024;2023-04-24T09:23:31;5.70;;;1.87;;
4011;SDS011;2020;48.682;9.024;2023-04-24T09:28:25;0.80;;;0.80;;
4011;SDS011;2020;48.682;9.024;2023-04-24T09:31:03;0.80;;;0.80;;
4011;SDS011;2020;48.682;9.024;2023-04-24T09:33:32;0.70;;;0.70;;
4011;SDS011;2020;48.682;9.024;2023-04-24T09:35:57;1.20;;;0.90;;
4011;SDS011;2020;48.682;9.024;2023-04-24T09:38:36;0.73;;;0.73;;
4011;SDS011;2020;48.682;9.024;2023-04-24T09:41:03;0.60;;;0.60;;
4011;SDS011;2020;48.682;9.024;2023-04-24T09:43:30;1.00;;;1.00;;
4011;SDS011;2020;48.682;9.024;2023-04-24T09:45:57;0.90;;;0.90;;
4011;SDS011;2020;48.682;9.024;2023-04-24T09:48:33;2.20;;;0.87;;
4011;SDS011;2020;48.682;9.024;2023-04-24T09:51:00;0.60;;;0.60;;
4011;SDS011;2020;48.682;9.024;2023-04-24T09:53:27;1.03;;;1.03;;
4011;SDS011;2020;48.682;9.024;2023-04-24T09:55:53;0.80;;;0.80;;
4011;SDS011;2020;48.682;9.024;2023-04-24T09:58:24;1.23;;;0.70;;
4011;SDS011;2020;48.682;9.024;2023-04-24T10:00:53;0.70;;;0.70;;
4011;SDS011;2020;48.682;9.024;2023-04-24T10:03:19;1.50;;;1.20;;
4011;SDS011;2020;48.682;9.024;2023-04-24T10:05:45;0.70;;;0.70;;
4011;SDS011;2020;48.682;9.024;2023-04-24T10:08:12;1.00;;;0.90;;
4011;SDS011;2020;48.682;9.024;2023-04-24T10:10:38;0.70;;;0.70;;
4011;SDS011;2020;48.682;9.024;2023-04-24T10:13:06;0.70;;;0.70;;
4011;SDS011;2020;48.682;9.024;2023-04-24T10:15:32;1.43;;;0.97;;
4011;SDS011;2020;48.682;9.024;2023-04-24T10:17:58;0.93;;;0.80;;
4011;SDS011;2020;48.682;9.024;2023-04-24T10:20:25;1.23;;;0.70;;
4011;SDS011;2020;48.682;9.024;2023-04-24T10:22:52;0.60;;;0.60;;
4011;SDS011;2020;48.682;9.024;2023-04-24T10:25:19;0.73;;;0.73;;
4011;SDS011;2020;48.682;9.024;2023-04-24T10:27:46;1.03;;;0.80;;
4011;SDS011;2020;48.682;9.024;2023-04-24T10:30:13;0.50;;;0.50;;
4011;SDS011;2020;48.682;9.024;2023-04-24T10:32:39;0.60;;;0.60;;
4011;SDS011;2020;48.682;9.024;2023-04-24T10:35:08;0.60;;;0.60;;
4011;SDS011;2020;48.682;9.024;2023-04-24T10:37:38;3.60;;;0.70;;
4011;SDS011;2020;48.682;9.024;2023-04-24T10:40:07;0.70;;;0.70;;
4011;SDS011;2020;48.682;9.024;2023-04-24T10:42:33;0.70;;;0.70;;
4011;SDS011;2020;48.682;9.024;2023-04-24T10:44:59;0.80;;;0.80;;
4011;SDS011;2020;48.682;9.024;2023-04-24T10:47:27;0.80;;;0.80;;
4011;SDS011;2020;48.682;9.024;2023-04-24T10:49:52;0.60;;;0.60;;
4011;SDS011;2020;48.682;9.024;2023-04-24T10:52:17;0.70;;;0.70;;
4011;SDS011;2020;48.682;9.024;2023-04-24T10:54:44;0.60;;;0.60;;
4011;SDS011;2020;48.682;9.024;2023-04-24T11:02:45;0.60;;;0.60;;
4011;SDS011;2020;48.682;9.024;2023-04-24T11:05:14;0.70;;;0.70;;
4011;SDS011;2020;48.682;9.024;2023-04-24T11:10:43;0.70;;;0.70;;
4011;SDS011;2020;48.682;9.024;2023-04-24T11:13:10;1.43;;;1.07;;
4011;SDS011;2020;48.682;9.024;2023-04-24T11:15:40;0.97;;;0.97;;
4011;SDS011;2020;48.682;9.024;2023-04-24T11:18:12;0.80;;;0.80;;
4011;SDS011;2020;48.682;9.024;2023-04-24T11:20:41;0.83;;;0.83;;
4011;SDS011;2020;48.682;9.024;2023-04-24T11:23:07;0.60;;;0.60;;
4011;SDS011;2020;48.682;9.024;2023-04-24T11:25:33;0.70;;;0.70;;
4011;SDS011;2020;48.682;9.024;2023-04-24T11:28:03;0.80;;;0.80;;
4011;SDS011;2020;48.682;9.024;2023-04-24T11:30:30;1.00;;;1.00;;
4011;SDS011;2020;48.682;9.024;2023-04-24T11:32:56;0.60;;;0.60;;
4011;SDS011;2020;48.682;9.024;2023-04-24T11:35:30;1.07;;;1.07;;
4011;SDS011;2020;48.682;9.024;2023-04-24T11:38:02;1.00;;;1.00;;
4011;SDS011;2020;48.682;9.024;2023-04-24T11:40:27;1.80;;;0.70;;
4011;SDS011;2020;48.682;9.024;2023-04-24T11:42:53;0.70;;;0.70;;
4011;SDS011;2020;48.682;9.024;2023-04-24T11:45:23;1.00;;;1.00;;
4011;SDS011;2020;48.682;9.024;2023-04-24T11:47:50;0.70;;;0.70;;
4011;SDS011;2020;48.682;9.024;2023-04-24T11:50:17;1.90;;;0.60;;
4011;SDS011;2020;48.682;9.024;2023-04-24T11:52:44;0.83;;;0.83;;
4011;SDS011;2020;48.682;9.024;2023-04-24T11:57:39;0.70;;;0.70;;
4011;SDS011;2020;48.682;9.024;2023-04-24T12:00:14;0.70;;;0.70;;
4011;SDS011;2020;48.682;9.024;2023-04-24T12:02:41;0.70;;;0.70;;
4011;SDS011;2020;48.682;9.024;2023-04-24T12:05:06;0.70;;;0.70;;
4011;SDS011;2020;48.682;9.024;2023-04-24T12:07:31;0.80;;;0.80;;
4011;SDS011;2020;48.682;9.024;2023-04-24T12:10:07;1.00;;;1.00;;
4011;SDS011;2020;48.682;9.024;2023-04-24T12:12:33;0.90;;;0.90;;
4011;SDS011;2020;48.682;9.024;2023-04-24T12:14:58;0.83;;;0.83;;
4011;SDS011;2020;48.682;9.024;2023-04-24T12:17:28;1.17;;;1.07;;
4011;SDS011;2020;48.682;9.024;2023-04-24T12:22:48;0.97;;;0.97;;
4011;SDS011;2020;48.682;9.024;2023-04-24T12:25:14;1.37;;;1.27;;
4011;SDS011;2020;48.682;9.024;2023-04-24T12:27:40;0.83;;;0.83;;
4011;SDS011;2020;48.682;9.024;2023-04-24T12:30:10;4.30;;;0.90;;
4011;SDS011;2020;48.682;9.024;2023-04-24T12:32:43;0.80;;;0.80;;
4011;SDS011;2020;48.682;9.024;2023-04-24T12:35:10;0.60;;;0.60;;
4011;SDS011;2020;48.682;9.024;2023-04-24T12:37:35;1.07;;;0.80;;
4011;SDS011;2020;48.682;9.024;2023-04-24T12:42:29;0.70;;;0.70;;
4011;SDS011;2020;48.682;9.024;2023-04-24T12:45:04;0.50;;;0.50;;
4011;SDS011;2020;48.682;9.024;2023-04-24T12:47:31;0.87;;;0.87;;
4011;SDS011;2020;48.682;9.024;2023-04-24T12:49:58;0.90;;;0.90;;
4011;SDS011;2020;48.682;9.024;2023-04-24T12:52:25;0.70;;;0.70;;
4011;SDS011;2020;48.682;9.024;2023-04-24T12:54:55;0.60;;;0.60;;
4011;SDS011;2020;48.682;9.024;2023-04-24T12:57:22;0.80;;;0.80;;
4011;SDS011;2020;48.682;9.024;2023-04-24T12:59:49;0.80;;;0.80;;
4011;SDS011;2020;48.682;9.024;2023-04-24T13:02:15;1.33;;;1.33;;
4011;SDS011;2020;48.682;9.024;2023-04-24T13:04:43;1.40;;;1.40;;
4011;SDS011;2020;48.682;9.024;2023-04-24T13:07:09;1.00;;;1.00;;
4011;SDS011;2020;48.682;9.024;2023-04-24T13:09:35;0.80;;;0.80;;
4011;SDS011;2020;48.682;9.024;2023-04-24T13:12:00;0.60;;;0.60;;
4011;SDS011;2020;48.682;9.024;2023-04-24T13:14:26;0.60;;;0.60;;
4011;SDS011;2020;48.682;9.024;2023-04-24T13:16:51;1.20;;;1.20;;
4011;SDS011;2020;48.682;9.024;2023-04-24T13:19:17;0.60;;;0.60;;
4011;SDS011;2020;48.682;9.024;2023-04-24T13:21:43;0.97;;;0.97;;
4011;SDS011;2020;48.682;9.024;2023-04-24T13:24:08;0.70;;;0.70;;
4011;SDS011;2020;48.682;9.024;2023-04-24T13:26:34;0.97;;;0.97;;
4011;SDS011;2020;48.682;9.024;2023-04-24T13:29:00;1.10;;;1.10;;
4011;SDS011;2020;48.682;9.024;2023-04-24T13:31:25;1.10;;;1.10;;
4011;SDS011;2020;48.682;9.024;2023-04-24T13:33:50;1.47;;;1.37;;
4011;SDS011;2020;48.682;9.024;2023-04-24T13:36:16;1.90;;;1.00;;
4011;SDS011;2020;48.682;9.024;2023-04-24T13:38:42;1.00;;;1.00;;
4011;SDS011;2020;48.682;9.024;2023-04-24T13:41:07;1.53;;;1.53;;
4011;SDS011;2020;48.682;9.024;2023-04-24T13:43:33;1.10;;;1.10;;
4011;SDS011;2020;48.682;9.024;2023-04-24T13:45:58;1.50;;;1.40;;
4011;SDS011;2020;48.682;9.024;2023-04-24T13:48:26;1.30;;;1.20;;
4011;SDS011;2020;48.682;9.024;2023-04-24T13:50:51;3.20;;;1.93;;
4011;SDS011;2020;48.682;9.024;2023-04-24T13:53:17;1.00;;;0.90;;
4011;SDS011;2020;48.682;9.024;2023-04-24T13:55:42;2.07;;;1.63;;
4011;SDS011;2020;48.682;9.024;2023-04-24T13:58:08;1.10;;;1.10;;
4011;SDS011;2020;48.682;9.024;2023-04-24T14:00:33;1.30;;;1.23;;
4011;SDS011;2020;48.682;9.024;2023-04-24T14:02:58;0.83;;;0.83;;
4011;SDS011;2020;48.682;9.024;2023-04-24T14:05:23;1.10;;;1.10;;
4011;SDS011;2020;48.682;9.024;2023-04-24T14:07:50;1.23;;;1.13;;
4011;SDS011;2020;48.682;9.024;2023-04-24T14:10:15;1.17;;;1.17;;
4011;SDS011;2020;48.682;9.024;2023-04-24T14:12:41;1.00;;;1.00;;
4011;SDS011;2020;48.682;9.024;2023-04-24T14:15:06;1.57;;;1.47;;
4011;SDS011;2020;48.682;9.024;2023-04-24T14:17:33;1.60;;;1.47;;
4011;SDS011;2020;48.682;9.024;2023-04-24T14:19:58;1.87;;;1.77;;
4011;SDS011;2020;48.682;9.024;2023-04-24T14:22:25;1.27;;;1.27;;
4011;SDS011;2020;48.682;9.024;2023-04-24T14:24:50;1.60;;;1.50;;
4011;SDS011;2020;48.682;9.024;2023-04-24T14:27:16;1.27;;;1.27;;
4011;SDS011;2020;48.682;9.024;2023-04-24T14:29:41;1.80;;;1.73;;
4011;SDS011;2020;48.682;9.024;2023-04-24T14:32:06;1.63;;;1.53;;
4011;SDS011;2020;48.682;9.024;2023-04-24T14:34:33;1.43;;;1.43;;
4011;SDS011;2020;48.682;9.024;2023-04-24T14:36:59;1.63;;;1.30;;
4011;SDS011;2020;48.682;9.024;2023-04-24T14:39:24;1.40;;;1.40;;
4011;SDS011;2020;48.682;9.024;2023-04-24T14:41:49;1.13;;;1.07;;
4011;SDS011;2020;48.682;9.024;2023-04-24T14:44:14;1.60;;;1.60;;
4011;SDS011;2020;48.682;9.024;2023-04-24T14:46:40;1.67;;;1.57;;
4011;SDS011;2020;48.682;9.024;2023-04-24T14:49:06;3.13;;;1.30;;
4011;SDS011;2020;48.682;9.024;2023-04-24T14:51:34;1.23;;;1.23;;
4011;SDS011;2020;48.682;9.024;2023-04-24T14:54:00;0.90;;;0.90;;
4011;SDS011;2020;48.682;9.024;2023-04-24T14:56:25;0.97;;;0.97;;
4011;SDS011;2020;48.682;9.024;2023-04-24T14:58:51;1.27;;;1.07;;
4011;SDS011;2020;48.682;9.024;2023-04-24T15:01:16;2.70;;;1.10;;
4011;SDS011;2020;48.682;9.024;2023-04-24T15:03:42;1.10;;;1.10;;
4011;SDS011;2020;48.682;9.024;2023-04-24T15:06:07;0.80;;;0.80;;
4011;SDS011;2020;48.682;9.024;2023-04-24T15:08:33;0.97;;;0.97;;
4011;SDS011;2020;48.682;9.024;2023-04-24T15:10:58;1.00;;;1.00;;
4011;SDS011;2020;48.682;9.024;2023-04-24T15:13:23;1.00;;;1.00;;
4011;SDS011;2020;48.682;9.024;2023-04-24T15:15:48;1.10;;;1.00;;
4011;SDS011;2020;48.682;9.024;2023-04-24T15:18:14;0.90;;;0.90;;
4011;SDS011;2020;48.682;9.024;2023-04-24T15:20:39;0.80;;;0.80;;
4011;SDS011;2020;48.682;9.024;2023-04-24T15:23:07;0.97;;;0.97;;
4011;SDS011;2020;48.682;9.024;2023-04-24T15:25:33;1.10;;;1.00;;
4011;SDS011;2020;48.682;9.024;2023-04-24T15:27:58;1.13;;;1.13;;